createdAt,value
2019-03-08T00:00:42.687Z,12.51
2019-03-08T00:03:12.718Z,12.53
2019-03-08T00:05:40.803Z,12.54
2019-03-08T00:08:08.839Z,12.50
2019-03-08T00:10:38.041Z,12.48
2019-03-08T00:13:06.191Z,12.49
2019-03-08T00:15:34.674Z,12.50
2019-03-08T00:18:02.932Z,12.47
2019-03-08T00:20:31.004Z,12.45
2019-03-08T00:22:59.101Z,12.43
2019-03-08T00:25:27.205Z,12.41
2019-03-08T00:27:55.364Z,12.41
2019-03-08T00:30:24.875Z,12.41
2019-03-08T00:32:53.217Z,12.41
2019-03-08T00:35:22.551Z,12.41
2019-03-08T00:37:50.593Z,12.41
2019-03-08T00:40:18.749Z,12.43
2019-03-08T00:42:46.814Z,12.42
2019-03-08T00:45:14.931Z,12.41
2019-03-08T00:47:43.685Z,12.40
2019-03-08T00:50:12.309Z,12.37
2019-03-08T00:52:40.697Z,12.36
2019-03-08T00:55:08.978Z,12.31
2019-03-08T00:57:37.062Z,12.29
2019-03-08T01:00:11.220Z,12.25
2019-03-08T01:02:41.071Z,12.23
2019-03-08T01:05:10.089Z,12.20
2019-03-08T01:07:38.475Z,12.16
2019-03-08T01:10:09.927Z,12.11
2019-03-08T01:12:38.052Z,12.09
2019-03-08T01:15:07.269Z,12.05
2019-03-08T01:17:35.340Z,12.00
2019-03-08T01:20:03.885Z,11.99
2019-03-08T01:22:31.964Z,11.96
2019-03-08T01:25:01.410Z,11.94
2019-03-08T01:27:29.565Z,11.92
2019-03-08T01:29:57.869Z,11.87
2019-03-08T01:32:25.959Z,11.81
2019-03-08T01:34:54.144Z,11.78
2019-03-08T01:37:22.333Z,11.78
2019-03-08T01:39:50.499Z,11.70
2019-03-08T01:42:18.560Z,11.66
2019-03-08T01:44:46.833Z,11.65
2019-03-08T01:47:14.973Z,11.59
2019-03-08T01:49:43.022Z,11.56
2019-03-08T01:52:12.181Z,11.57
2019-03-08T01:54:40.254Z,11.53
2019-03-08T01:57:08.346Z,11.50
2019-03-08T01:59:37.630Z,11.46
2019-03-08T02:02:05.719Z,11.43
2019-03-08T02:04:33.742Z,11.41
2019-03-08T02:07:02.158Z,11.37
2019-03-08T02:09:30.207Z,11.35
2019-03-08T02:11:58.658Z,11.33
2019-03-08T02:14:27.016Z,11.29
2019-03-08T02:16:55.063Z,11.28
2019-03-08T02:19:23.154Z,11.24
2019-03-08T02:21:52.998Z,11.19
2019-03-08T02:24:21.050Z,11.17
2019-03-08T02:26:49.249Z,11.11
2019-03-08T02:29:17.989Z,11.07
2019-03-08T02:31:46.058Z,11.05
2019-03-08T02:34:13.976Z,10.98
2019-03-08T02:36:42.473Z,10.92
2019-03-08T02:39:11.870Z,10.89
2019-03-08T02:41:41.952Z,10.86
2019-03-08T02:44:10.396Z,10.87
2019-03-08T02:46:40.762Z,10.85
2019-03-08T02:49:08.864Z,10.80
2019-03-08T02:51:37.662Z,10.76
2019-03-08T02:54:07.023Z,10.75
2019-03-08T02:56:35.091Z,10.75
2019-03-08T02:59:03.340Z,10.75
2019-03-08T03:01:31.446Z,10.75
2019-03-08T03:03:59.511Z,10.75
2019-03-08T03:06:27.936Z,10.75
2019-03-08T03:08:56.083Z,10.77
2019-03-08T03:11:24.258Z,10.78
2019-03-08T03:13:54.167Z,10.78
2019-03-08T03:16:22.802Z,10.75
2019-03-08T03:18:50.979Z,10.79
2019-03-08T03:21:19.025Z,10.80
2019-03-08T03:23:47.121Z,10.83
2019-03-08T03:26:15.482Z,10.82
2019-03-08T03:28:44.563Z,10.91
2019-03-08T03:31:12.641Z,10.98
2019-03-08T03:33:40.785Z,11.02
2019-03-08T03:36:09.255Z,11.04
2019-03-08T03:38:39.074Z,11.01
2019-03-08T03:41:08.837Z,10.98
2019-03-08T03:43:37.142Z,10.94
2019-03-08T03:46:05.491Z,10.92
2019-03-08T03:48:33.704Z,10.86
2019-03-08T03:51:01.829Z,10.85
2019-03-08T03:53:30.060Z,10.81
2019-03-08T03:55:58.178Z,10.77
2019-03-08T03:58:26.236Z,10.69
2019-03-08T04:00:55.076Z,10.62
2019-03-08T04:03:23.441Z,10.55
2019-03-08T04:05:51.719Z,10.44
2019-03-08T04:08:19.884Z,10.34
2019-03-08T04:10:47.949Z,10.28
2019-03-08T04:13:16.554Z,10.25
2019-03-08T04:15:45.812Z,10.21
2019-03-08T04:18:13.890Z,10.20
2019-03-08T04:20:42.367Z,10.18
2019-03-08T04:23:10.439Z,10.16
2019-03-08T04:25:38.845Z,10.19
2019-03-08T04:28:07.094Z,10.21
2019-03-08T04:30:35.392Z,10.17
2019-03-08T04:33:03.429Z,10.13
2019-03-08T04:35:31.626Z,10.12
2019-03-08T04:37:59.683Z,10.10
2019-03-08T04:40:27.745Z,10.09
2019-03-08T04:42:56.005Z,10.06
2019-03-08T04:45:24.370Z,10.02
2019-03-08T04:47:52.535Z,9.99
2019-03-08T04:50:33.318Z,9.97
2019-03-08T04:53:01.428Z,9.99
2019-03-08T04:55:29.790Z,10.00
2019-03-08T04:57:57.924Z,9.99
2019-03-08T05:00:26.158Z,10.02
2019-03-08T05:02:54.416Z,10.03
2019-03-08T05:05:22.517Z,10.02
2019-03-08T05:07:50.669Z,10.03
2019-03-08T05:10:18.790Z,10.02
2019-03-08T05:12:46.995Z,10.01
2019-03-08T05:15:16.170Z,10.02
2019-03-08T05:17:45.228Z,9.98
2019-03-08T05:20:13.263Z,9.98
2019-03-08T05:22:42.929Z,9.98
2019-03-08T05:25:11.251Z,9.98
2019-03-08T05:27:39.610Z,9.99
2019-03-08T05:30:08.616Z,9.99
2019-03-08T05:32:36.737Z,10.01
2019-03-08T05:35:05.724Z,10.03
2019-03-08T05:37:33.788Z,10.05
2019-03-08T05:40:02.294Z,10.05
2019-03-08T05:42:31.202Z,10.05
2019-03-08T05:44:59.359Z,10.02
2019-03-08T05:47:27.556Z,10.02
2019-03-08T05:49:55.627Z,10.00
2019-03-08T05:52:23.695Z,9.96
2019-03-08T05:54:52.011Z,9.91
2019-03-08T05:57:20.316Z,9.89
2019-03-08T05:59:48.360Z,9.85
2019-03-08T06:02:16.432Z,9.81
2019-03-08T06:04:44.482Z,9.79
2019-03-08T06:07:12.966Z,9.77
2019-03-08T06:09:42.381Z,9.77
2019-03-08T06:12:11.040Z,9.77
2019-03-08T06:14:39.458Z,9.75
2019-03-08T06:17:07.551Z,9.76
2019-03-08T06:19:36.783Z,9.77
2019-03-08T06:22:04.853Z,9.77
2019-03-08T06:24:32.883Z,9.77
2019-03-08T06:27:01.092Z,9.80
2019-03-08T06:29:29.521Z,9.81
2019-03-08T06:31:57.596Z,9.83
2019-03-08T06:34:25.667Z,9.85
2019-03-08T06:36:53.791Z,9.86
2019-03-08T06:39:21.856Z,9.85
2019-03-08T06:41:50.306Z,9.88
2019-03-08T06:44:18.739Z,9.92
2019-03-08T06:46:47.426Z,9.94
2019-03-08T06:49:15.482Z,9.97
2019-03-08T06:51:43.540Z,10.00
2019-03-08T06:54:12.005Z,10.03
2019-03-08T06:56:40.050Z,10.05
2019-03-08T06:59:16.251Z,10.11
2019-03-08T07:01:44.403Z,10.14
2019-03-08T07:04:12.762Z,10.19
2019-03-08T07:06:40.827Z,10.22
2019-03-08T07:09:09.848Z,10.27
2019-03-08T07:11:38.097Z,10.29
2019-03-08T07:14:06.579Z,10.32
2019-03-08T07:16:35.004Z,10.34
2019-03-08T07:19:03.952Z,10.38
2019-03-08T07:21:55.890Z,10.43
2019-03-08T07:24:31.087Z,10.46
2019-03-08T07:27:17.445Z,10.45
2019-03-08T07:29:56.590Z,10.47
2019-03-08T07:32:44.671Z,10.46
2019-03-08T07:35:51.064Z,10.47
2019-03-08T07:38:57.229Z,10.50
2019-03-08T07:41:43.734Z,10.50
2019-03-08T07:44:38.189Z,10.53
2019-03-08T07:47:17.918Z,10.55
2019-03-08T07:49:52.644Z,10.59
2019-03-08T07:52:38.907Z,10.63
2019-03-08T07:55:32.681Z,10.68
2019-03-08T07:58:23.228Z,10.71
2019-03-08T08:01:19.769Z,10.71
2019-03-08T08:04:19.850Z,10.73
2019-03-08T08:07:05.320Z,10.73
2019-03-08T08:10:00.295Z,10.71
2019-03-08T08:12:54.244Z,10.70
2019-03-08T08:15:38.712Z,10.71
2019-03-08T08:18:27.021Z,10.74
2019-03-08T08:21:17.735Z,10.76
2019-03-08T08:24:04.251Z,10.83
2019-03-08T08:26:51.323Z,10.84
2019-03-08T08:29:37.791Z,10.85
2019-03-08T08:32:24.804Z,10.87
2019-03-08T08:35:08.491Z,10.87
2019-03-08T08:38:05.374Z,10.87
2019-03-08T08:40:55.973Z,10.89
2019-03-08T08:43:42.102Z,10.95
2019-03-08T08:46:28.393Z,11.07
2019-03-08T08:49:14.986Z,11.25
2019-03-08T08:51:49.362Z,11.40
2019-03-08T08:54:27.235Z,11.52
2019-03-08T08:57:04.196Z,11.61
2019-03-08T08:59:51.159Z,11.65
2019-03-08T09:02:51.208Z,11.71
2019-03-08T09:05:28.828Z,11.81
2019-03-08T09:08:16.530Z,11.90
2019-03-08T09:11:19.435Z,11.94
2019-03-08T09:14:02.367Z,11.97
2019-03-08T09:16:39.771Z,12.03
2019-03-08T09:19:42.755Z,12.07
2019-03-08T09:22:22.497Z,12.11
2019-03-08T09:25:11.349Z,12.29
2019-03-08T09:28:01.914Z,12.56
2019-03-08T09:30:58.769Z,12.75
2019-03-08T09:33:52.754Z,12.87
2019-03-08T09:36:30.671Z,12.95
2019-03-08T09:39:11.598Z,13.06
2019-03-08T09:41:59.322Z,13.12
2019-03-08T09:44:59.067Z,13.13
2019-03-08T09:47:36.505Z,13.15
2019-03-08T09:50:27.785Z,13.17
2019-03-08T09:53:14.435Z,13.24
2019-03-08T09:55:47.996Z,13.24
2019-03-08T09:58:27.304Z,13.31
2019-03-08T10:01:16.864Z,13.28
2019-03-08T10:04:01.917Z,13.28
2019-03-08T10:06:58.795Z,13.49
2019-03-08T10:10:05.391Z,13.78
2019-03-08T10:12:41.961Z,13.96
2019-03-08T10:15:28.279Z,14.11
2019-03-08T10:18:14.731Z,14.18
2019-03-08T10:21:01.370Z,14.42
2019-03-08T10:23:49.310Z,14.80
2019-03-08T10:26:27.052Z,15.13
2019-03-08T10:29:14.760Z,15.35
2019-03-08T10:32:05.065Z,15.37
2019-03-08T10:34:53.901Z,15.45
2019-03-08T10:37:41.713Z,15.53
2019-03-08T10:40:34.104Z,15.49
2019-03-08T10:43:16.231Z,15.42
2019-03-08T10:46:15.900Z,15.43
2019-03-08T10:49:06.935Z,15.37
2019-03-08T10:51:43.628Z,15.30
2019-03-08T10:54:30.491Z,15.32
2019-03-08T10:57:15.415Z,15.37
2019-03-08T11:00:08.934Z,15.37
2019-03-08T11:03:15.042Z,15.37
2019-03-08T11:06:17.831Z,15.38
2019-03-08T11:08:51.320Z,15.34
2019-03-08T11:11:57.203Z,15.25
2019-03-08T11:14:43.706Z,15.23
2019-03-08T11:17:31.136Z,15.15
2019-03-08T11:20:21.510Z,15.09
2019-03-08T11:22:59.526Z,14.95
2019-03-08T11:25:52.976Z,14.83
2019-03-08T11:28:43.303Z,14.69
2019-03-08T11:31:42.647Z,14.70
2019-03-08T11:34:15.748Z,14.73
2019-03-08T11:37:15.148Z,14.72
2019-03-08T11:39:48.691Z,14.77
2019-03-08T11:42:32.744Z,14.81
2019-03-08T11:45:18.422Z,14.88
2019-03-08T11:48:05.004Z,14.86
2019-03-08T11:50:55.785Z,14.79
2019-03-08T11:53:56.275Z,14.83
2019-03-08T11:56:56.162Z,14.85
2019-03-08T11:59:56.820Z,14.86
2019-03-08T12:02:58.507Z,14.87
2019-03-08T12:05:43.138Z,14.92
2019-03-08T12:08:43.728Z,14.94
2019-03-08T12:11:36.571Z,14.94
2019-03-08T12:14:22.929Z,14.96
2019-03-08T12:17:09.957Z,15.00
2019-03-08T12:19:49.506Z,14.99
2019-03-08T12:22:47.016Z,15.02
2019-03-08T12:25:49.617Z,15.03
2019-03-08T12:28:36.315Z,15.05
2019-03-08T12:31:22.837Z,15.00
2019-03-08T12:34:08.346Z,15.00
2019-03-08T12:36:49.739Z,15.00
2019-03-08T12:39:33.668Z,15.06
2019-03-08T12:42:13.805Z,15.17
2019-03-08T12:44:50.503Z,15.30
2019-03-08T12:47:41.193Z,15.35
2019-03-08T12:50:15.152Z,15.44
2019-03-08T12:53:13.904Z,15.52
2019-03-08T12:56:05.497Z,15.61
2019-03-08T12:58:50.173Z,15.67
2019-03-08T13:01:44.553Z,15.74
2019-03-08T13:04:50.546Z,15.86
2019-03-08T13:07:50.257Z,15.94
2019-03-08T13:10:18.320Z,16.08
2019-03-08T13:12:48.513Z,16.36
2019-03-08T13:15:16.801Z,16.61
2019-03-08T13:17:44.875Z,16.81
2019-03-08T13:20:16.627Z,16.97
2019-03-08T13:22:44.795Z,17.14
2019-03-08T13:25:14.498Z,17.36
2019-03-08T13:27:42.583Z,17.62
2019-03-08T13:30:16.419Z,18.01
2019-03-08T13:32:44.489Z,18.40
2019-03-08T13:35:13.987Z,18.70
2019-03-08T13:37:43.164Z,18.97
2019-03-08T13:40:12.295Z,19.21
2019-03-08T13:42:42.185Z,19.36
2019-03-08T13:45:14.225Z,19.56
2019-03-08T13:47:42.295Z,19.82
2019-03-08T13:50:11.632Z,20.03
2019-03-08T13:52:39.797Z,20.14
2019-03-08T13:55:09.854Z,20.27
2019-03-08T13:57:39.885Z,20.39
2019-03-08T14:00:11.420Z,20.53
2019-03-08T14:02:39.838Z,20.62
2019-03-08T14:05:08.463Z,20.55
2019-03-08T14:07:36.836Z,20.55
2019-03-08T14:10:07.429Z,20.59
2019-03-08T14:12:35.799Z,20.63
2019-03-08T14:15:04.756Z,20.55
2019-03-08T14:17:33.921Z,20.42
2019-03-08T14:20:01.995Z,20.28
2019-03-08T14:22:30.728Z,20.20
2019-03-08T14:24:58.800Z,20.13
2019-03-08T14:27:26.869Z,20.00
2019-03-08T14:29:58.814Z,19.93
2019-03-08T14:32:25.529Z,19.92
2019-03-08T14:34:55.043Z,19.94
2019-03-08T14:37:23.161Z,19.92
2019-03-08T14:39:51.218Z,19.73
2019-03-08T14:42:40.478Z,19.59
2019-03-08T14:45:15.863Z,19.47
2019-03-08T14:47:46.238Z,19.34
2019-03-08T14:50:14.396Z,19.27
2019-03-08T14:52:42.457Z,19.21
2019-03-08T14:55:14.478Z,18.99
2019-03-08T14:57:42.541Z,18.76
2019-03-08T15:00:17.925Z,18.70
2019-03-08T15:02:47.160Z,18.61
2019-03-08T15:05:19.133Z,18.60
2019-03-08T15:07:46.001Z,18.63
2019-03-08T15:10:16.722Z,18.64
2019-03-08T15:12:49.127Z,18.61
2019-03-08T15:15:16.900Z,18.58
2019-03-08T15:17:45.110Z,18.40
2019-03-08T15:20:15.787Z,18.36
2019-03-08T15:22:45.158Z,18.27
2019-03-08T15:25:15.088Z,18.17
2019-03-08T15:27:43.214Z,18.04
2019-03-08T15:30:13.434Z,17.95
2019-03-08T15:32:41.480Z,17.85
2019-03-08T15:35:10.714Z,17.76
2019-03-08T15:37:44.095Z,17.71
2019-03-08T15:40:14.029Z,17.70
2019-03-08T15:42:42.078Z,17.70
2019-03-08T15:45:10.846Z,17.71
2019-03-08T15:47:39.236Z,17.60
2019-03-08T15:50:11.119Z,17.46
2019-03-08T15:52:39.207Z,17.41
2019-03-08T15:55:07.572Z,17.37
2019-03-08T15:57:36.189Z,17.33
2019-03-08T16:00:11.135Z,17.26
2019-03-08T16:02:39.584Z,17.18
2019-03-08T16:05:08.640Z,17.11
2019-03-08T16:07:36.733Z,17.07
2019-03-08T16:10:06.240Z,17.01
2019-03-08T16:12:34.480Z,16.99
2019-03-08T16:15:03.522Z,16.92
2019-03-08T16:17:32.166Z,16.88
2019-03-08T16:20:02.961Z,16.87
2019-03-08T16:22:31.791Z,16.82
2019-03-08T16:24:59.859Z,16.80
2019-03-08T16:27:28.458Z,16.76
2019-03-08T16:29:56.869Z,16.74
2019-03-08T16:32:34.919Z,16.71
2019-03-08T16:35:03.858Z,16.66
2019-03-08T16:37:54.364Z,16.63
2019-03-08T16:40:37.946Z,16.61
2019-03-08T16:43:33.409Z,16.52
2019-03-08T16:46:09.945Z,16.37
2019-03-08T16:48:51.767Z,16.28
2019-03-08T16:51:38.095Z,16.23
2019-03-08T16:54:14.079Z,16.17
2019-03-08T16:57:04.366Z,16.11
2019-03-08T16:59:48.007Z,16.09
2019-03-08T17:02:26.769Z,16.02
2019-03-08T17:05:29.154Z,15.96
2019-03-08T17:08:17.202Z,15.92
2019-03-08T17:11:07.488Z,15.84
2019-03-08T17:14:07.415Z,15.77
2019-03-08T17:17:13.241Z,15.72
2019-03-08T17:20:04.561Z,15.65
2019-03-08T17:22:48.090Z,15.56
2019-03-08T17:25:29.033Z,15.47
2019-03-08T17:28:17.114Z,15.38
2019-03-08T17:31:11.130Z,15.32
2019-03-08T17:34:01.984Z,15.25
2019-03-08T17:36:42.773Z,15.19
2019-03-08T17:39:31.301Z,15.13
2019-03-08T17:42:15.684Z,15.07
2019-03-08T17:45:02.008Z,15.02
2019-03-08T17:48:06.669Z,14.97
2019-03-08T17:51:03.358Z,14.89
2019-03-08T17:53:46.537Z,14.80
2019-03-08T17:56:40.190Z,14.73
2019-03-08T17:59:33.433Z,14.66
2019-03-08T18:02:21.154Z,14.57
2019-03-08T18:04:56.128Z,14.46
2019-03-08T18:07:36.260Z,14.37
2019-03-08T18:10:14.327Z,14.30
2019-03-08T18:13:03.024Z,14.24
2019-03-08T18:15:39.601Z,14.17
2019-03-08T18:18:27.503Z,14.11
2019-03-08T18:21:07.331Z,14.04
2019-03-08T18:24:01.302Z,14.01
2019-03-08T18:26:40.200Z,13.99
2019-03-08T18:29:45.736Z,13.98
2019-03-08T18:32:45.461Z,13.99
2019-03-08T18:35:27.872Z,13.94
2019-03-08T18:38:24.758Z,13.91
2019-03-08T18:41:21.261Z,13.88
2019-03-08T18:44:14.650Z,13.83
2019-03-08T18:47:20.625Z,13.75
2019-03-08T18:50:11.241Z,13.60
2019-03-08T18:52:50.257Z,13.45
2019-03-08T18:55:36.678Z,13.37
2019-03-08T18:58:15.441Z,13.31
2019-03-08T19:00:52.473Z,13.26
2019-03-08T19:03:40.163Z,13.21
2019-03-08T19:06:33.761Z,13.16
2019-03-08T19:09:16.371Z,13.12
2019-03-08T19:12:10.359Z,13.08
2019-03-08T19:14:56.951Z,13.03
2019-03-08T19:17:51.568Z,13.02
2019-03-08T19:20:34.956Z,13.02
2019-03-08T19:23:25.234Z,12.96
2019-03-08T19:26:19.245Z,12.91
2019-03-08T19:29:16.471Z,12.87
2019-03-08T19:31:57.357Z,12.83
2019-03-08T19:34:44.316Z,12.76
2019-03-08T19:37:37.729Z,12.72
2019-03-08T19:40:15.338Z,12.68
2019-03-08T19:43:16.391Z,12.61
2019-03-08T19:46:15.945Z,12.56
2019-03-08T19:48:56.744Z,12.53
2019-03-08T19:51:47.054Z,12.47
2019-03-08T19:54:34.772Z,12.45
2019-03-08T19:57:22.445Z,12.42
2019-03-08T20:00:05.966Z,12.37
2019-03-08T20:02:45.150Z,12.35
2019-03-08T20:05:35.493Z,12.34
2019-03-08T20:08:27.130Z,12.34
2019-03-08T20:11:15.007Z,12.32
2019-03-08T20:14:02.844Z,12.32
2019-03-08T20:16:40.736Z,12.30
2019-03-08T20:19:28.674Z,12.32
2019-03-08T20:22:16.670Z,12.34
2019-03-08T20:25:22.389Z,12.35
2019-03-08T20:28:09.279Z,12.34
2019-03-08T20:30:57.008Z,12.34
2019-03-08T20:33:45.296Z,12.33
2019-03-08T20:36:27.064Z,12.32
2019-03-08T20:39:06.721Z,12.30
2019-03-08T20:41:44.725Z,12.30
2019-03-08T20:44:17.525Z,12.29
2019-03-08T20:47:08.105Z,12.28
2019-03-08T20:49:38.741Z,12.26
2019-03-08T20:52:07.099Z,12.23
2019-03-08T20:54:35.531Z,12.22
2019-03-08T20:57:03.878Z,12.21
2019-03-08T20:59:32.226Z,12.20
2019-03-08T21:02:00.359Z,12.15
2019-03-08T21:04:28.640Z,12.14
2019-03-08T21:06:56.993Z,12.09
2019-03-08T21:09:25.321Z,12.09
2019-03-08T21:11:53.489Z,12.07
2019-03-08T21:14:21.625Z,12.03
2019-03-08T21:16:50.072Z,12.01
2019-03-08T21:19:19.171Z,12.00
2019-03-08T21:21:47.329Z,12.01
2019-03-08T21:24:15.837Z,12.02
2019-03-08T21:26:44.905Z,12.03
2019-03-08T21:29:13.299Z,12.04
2019-03-08T21:31:41.865Z,12.07
2019-03-08T21:34:10.273Z,12.06
2019-03-08T21:36:38.635Z,12.08
2019-03-08T21:39:06.844Z,12.10
2019-03-08T21:41:35.904Z,12.10
2019-03-08T21:44:04.027Z,12.09
2019-03-08T21:46:32.167Z,12.12
2019-03-08T21:49:00.901Z,12.14
2019-03-08T21:51:29.361Z,12.16
2019-03-08T21:53:57.473Z,12.19
2019-03-08T21:56:25.588Z,12.21
2019-03-08T21:58:53.663Z,12.23
2019-03-08T22:01:22.375Z,12.23
2019-03-08T22:03:56.473Z,12.21
2019-03-08T22:06:24.827Z,12.21
2019-03-08T22:09:12.524Z,12.19
2019-03-08T22:11:43.129Z,12.19
2019-03-08T22:14:11.202Z,12.17
2019-03-08T22:16:39.331Z,12.17
2019-03-08T22:19:07.376Z,12.14
2019-03-08T22:21:35.777Z,12.14
2019-03-08T22:24:13.105Z,12.12
2019-03-08T22:26:34.640Z,12.12
2019-03-08T22:29:02.856Z,12.11
2019-03-08T22:31:30.924Z,12.10
2019-03-08T22:33:58.999Z,12.10
2019-03-08T22:36:27.109Z,12.10
2019-03-08T22:38:55.655Z,12.10
2019-03-08T22:41:24.199Z,12.08
2019-03-08T22:43:52.323Z,12.08
2019-03-08T22:46:20.393Z,12.06
2019-03-08T22:48:48.417Z,12.07
2019-03-08T22:51:16.462Z,12.07
2019-03-08T22:53:46.856Z,12.07
2019-03-08T22:56:14.915Z,12.08
2019-03-08T22:58:43.034Z,12.09
2019-03-08T23:01:14.680Z,12.09
2019-03-08T23:03:44.667Z,12.09
2019-03-08T23:06:14.252Z,12.09
2019-03-08T23:08:42.436Z,12.07
2019-03-08T23:11:10.505Z,12.07
2019-03-08T23:13:38.758Z,12.06
2019-03-08T23:16:06.995Z,12.07
2019-03-08T23:18:35.349Z,12.05
2019-03-08T23:21:03.515Z,12.02
2019-03-08T23:23:31.551Z,12.00
2019-03-08T23:25:59.729Z,11.99
2019-03-08T23:28:39.978Z,12.00
2019-03-08T23:31:20.055Z,12.01
2019-03-08T23:33:48.652Z,12.01
2019-03-08T23:36:16.714Z,11.99
2019-03-08T23:38:44.774Z,11.98
2019-03-08T23:41:12.838Z,12.00
2019-03-08T23:43:41.126Z,12.00
2019-03-08T23:46:10.281Z,12.00
2019-03-08T23:48:38.360Z,11.98
2019-03-08T23:51:07.625Z,11.98
2019-03-08T23:53:37.470Z,12.02
2019-03-08T23:56:05.815Z,12.02
2019-03-08T23:58:34.208Z,12.02
